Time;durP1;ratioP1;P1;durP2;ratioP2;P2;SDS_P1;SDS_P2;PMS_P1;PMS_P2;Temp;Humidity;BMP_temperature;BMP_pressure;BME280_temperature;BME280_humidity;BME280_pressure;Samples;Min_cycle;Max_cycle;Signal;HPM_P1;HPM_P2
2022/08/25 00:02:10;;;;;;;24.80;17.83;;;;;;;29.78;79.58;97934.69;4897289;29;20148;-72
2022/08/25 00:05:05;;;;;;;23.92;18.33;;;;;;;30.00;78.98;97937.91;4899262;29;20473;-72
2022/08/25 00:07:42;;;;;;;23.05;17.13;;;;;;;29.82;79.45;97941.09;4892431;29;20064;-72
2022/08/25 00:10:37;;;;;;;24.40;17.15;;;;;;;29.72;79.66;97949.13;4899722;29;20048;-72
2022/08/25 00:13:13;;;;;;;23.42;16.13;;;;;;;29.80;79.07;97948.94;4899484;29;20052;-73
2022/08/25 00:16:11;;;;;;;21.85;17.23;;;;;;;29.94;78.73;97955.97;4898971;29;20048;-72
2022/08/25 00:18:51;;;;;;;23.10;18.30;;;;;;;29.85;78.99;97940.38;4900950;29;20044;-72
2022/08/25 00:21:41;;;;;;;22.25;17.55;;;;;;;29.80;78.60;97948.94;4899370;29;20044;-73
2022/08/25 00:24:26;;;;;;;22.63;17.83;;;;;;;29.74;79.03;97949.59;4887651;29;20060;-72
2022/08/25 00:27:21;;;;;;;23.05;16.80;;;;;;;29.97;78.43;97955.25;4900329;29;20544;-73
2022/08/25 00:29:57;;;;;;;26.27;17.40;;;;;;;29.86;78.44;97953.03;4913067;29;20432;-72
2022/08/25 00:32:49;;;;;;;20.90;17.48;;;;;;;30.03;78.12;97953.81;4899736;29;20060;-73
2022/08/25 00:35:39;;;;;;;22.90;18.35;;;;;;;29.81;78.44;97956.09;4888401;29;20053;-73
2022/08/25 00:38:27;;;;;;;21.48;17.88;;;;;;;29.55;79.33;97953.09;4890050;29;20084;-72
2022/08/25 00:41:10;;;;;;;25.50;19.80;;;;;;;29.66;79.60;97956.91;4892529;28;20135;-71
2022/08/25 00:44:08;;;;;;;23.42;18.90;;;;;;;29.75;79.04;97962.25;4873269;29;20049;-73
2022/08/25 00:46:50;;;;;;;23.35;19.67;;;;;;;29.95;78.31;97965.88;4867918;29;20052;-72
2022/08/25 00:49:48;;;;;;;21.25;18.55;;;;;;;29.81;78.50;97967.16;4868278;29;20045;-73
2022/08/25 00:52:52;;;;;;;23.92;19.10;;;;;;;29.89;78.24;97972.88;4857078;29;20064;-73
2022/08/25 00:55:41;;;;;;;26.90;18.45;;;;;;;29.72;79.30;97971.25;4872568;29;20143;-73
2022/08/25 00:58:33;;;;;;;21.20;16.90;;;;;;;29.86;78.57;97974.38;4872245;29;20120;-72
2022/08/25 01:01:22;;;;;;;19.38;15.88;;;;;;;29.55;78.86;97980.72;4872500;29;20133;-73
2022/08/25 01:04:11;;;;;;;18.70;15.07;;;;;;;29.51;79.47;97991.69;4872279;29;20059;-72
2022/08/25 01:06:56;;;;;;;16.27;13.73;;;;;;;29.67;77.63;97988.91;4872612;29;20147;-72
2022/08/25 01:09:52;;;;;;;16.55;12.25;;;;;;;29.63;77.90;97988.81;4843440;29;20045;-73
2022/08/25 01:12:40;;;;;;;12.80;11.30;;;;;;;29.47;77.67;97988.06;4872225;29;20124;-74
2022/08/25 01:15:29;;;;;;;13.60;10.90;;;;;;;29.21;77.57;97994.09;4872199;29;20060;-72
2022/08/25 01:18:11;;;;;;;12.07;10.25;;;;;;;29.53;76.53;97999.63;4871923;29;20057;-73
2022/08/25 01:21:03;;;;;;;10.85;9.50;;;;;;;29.66;75.45;98001.16;4870351;29;20049;-74
2022/08/25 01:23:47;;;;;;;11.05;8.80;;;;;;;29.31;75.25;98003.81;4871947;29;20049;-73
2022/08/25 01:26:38;;;;;;;10.30;7.95;;;;;;;29.40;76.26;97994.19;4871775;29;20052;-73
2022/08/25 01:29:20;;;;;;;9.23;8.05;;;;;;;29.75;75.09;98004.56;4853458;29;20113;-73
2022/08/25 01:32:13;;;;;;;12.05;8.70;;;;;;;29.70;74.36;98002.03;4853193;29;20541;-72
2022/08/25 01:34:55;;;;;;;10.90;8.63;;;;;;;29.71;74.79;97997.28;4853498;29;20057;-73
2022/08/25 01:37:44;;;;;;;12.63;7.43;;;;;;;29.30;75.18;98003.03;4853259;29;20109;-73
2022/08/25 01:40:27;;;;;;;9.57;7.95;;;;;;;29.60;74.04;98000.63;4852807;29;20088;-73
2022/08/25 01:43:26;;;;;;;8.38;6.88;;;;;;;29.67;74.37;97997.22;4868320;28;20132;-72
2022/08/25 01:46:02;;;;;;;11.48;7.43;;;;;;;29.32;74.77;97995.16;4871141;29;20128;-72
2022/08/25 01:48:57;;;;;;;9.18;7.03;;;;;;;29.91;73.62;97995.44;4874589;29;20073;-73
2022/08/25 01:51:59;;;;;;;10.00;6.85;;;;;;;29.62;73.85;97994.72;4889657;29;20052;-73
2022/08/25 01:54:48;;;;;;;6.93;6.10;;;;;;;29.66;72.95;98004.72;4889996;29;20045;-73
2022/08/25 01:57:37;;;;;;;6.40;5.70;;;;;;;29.67;72.51;97997.22;4889945;29;20108;-73
2022/08/25 02:00:21;;;;;;;8.88;5.57;;;;;;;30.08;72.33;97995.03;4889757;29;20195;-73
2022/08/25 02:03:09;;;;;;;7.80;5.28;;;;;;;29.86;72.35;97994.53;4889701;29;20056;-72
2022/08/25 02:06:00;;;;;;;7.80;5.30;;;;;;;30.03;72.09;98001.63;4890036;29;20686;-73
2022/08/25 02:08:48;;;;;;;6.53;4.57;;;;;;;30.08;71.37;98002.50;4891087;29;20052;-73
2022/08/25 02:11:32;;;;;;;8.15;5.03;;;;;;;30.20;71.88;98007.94;4892242;29;20104;-73
2022/08/25 02:14:21;;;;;;;6.28;4.85;;;;;;;30.16;71.92;98020.91;4889876;29;20084;-72
2022/08/25 02:17:16;;;;;;;5.22;4.57;;;;;;;30.01;71.86;98019.78;4891002;29;20051;-73
2022/08/25 02:19:52;;;;;;;6.22;4.88;;;;;;;29.91;72.17;98023.91;4889622;29;20187;-73
2022/08/25 02:22:40;;;;;;;6.10;4.40;;;;;;;30.14;71.99;98023.22;4890503;29;20048;-73
2022/08/25 02:25:37;;;;;;;5.80;4.45;;;;;;;30.14;71.74;98021.25;4890640;29;20496;-73
2022/08/25 02:28:26;;;;;;;5.72;4.93;;;;;;;30.31;71.65;98022.81;4893314;29;20717;-73
2022/08/25 02:31:15;;;;;;;6.07;4.72;;;;;;;30.14;71.01;98023.22;4907109;29;20052;-74
2022/08/25 02:33:57;;;;;;;6.97;5.55;;;;;;;30.23;71.75;98032.94;4909931;29;20048;-73
2022/08/25 02:36:47;;;;;;;5.28;4.13;;;;;;;30.41;71.25;98027.81;4910579;29;20103;-73
2022/08/25 02:39:29;;;;;;;7.05;5.03;;;;;;;30.47;70.32;98036.63;4910429;29;20063;-73
2022/08/25 02:42:18;;;;;;;7.20;4.70;;;;;;;30.56;70.61;98040.00;4914393;28;20171;-74
2022/08/25 02:45:00;;;;;;;6.63;4.03;;;;;;;30.69;70.10;98031.53;4910943;29;20052;-73
2022/08/25 02:47:49;;;;;;;12.55;4.85;;;;;;;31.02;69.88;98034.63;4909800;29;20060;-73
2022/08/25 02:50:32;;;;;;;8.65;5.10;;;;;;;30.61;70.73;98036.13;4909446;29;20051;-72
2022/08/25 02:53:20;;;;;;;6.40;4.80;;;;;;;30.78;69.93;98044.03;4909312;29;20048;-73
2022/08/25 02:56:03;;;;;;;6.15;4.57;;;;;;;30.72;70.13;98058.50;4909651;29;20056;-73
2022/08/25 02:58:53;;;;;;;6.63;4.75;;;;;;;31.09;70.12;98055.31;4871397;29;20049;-73
2022/08/25 03:01:36;;;;;;;7.25;4.28;;;;;;;31.28;68.59;98051.72;4871433;29;20045;-72
2022/08/25 03:04:26;;;;;;;8.40;5.15;;;;;;;31.27;67.40;98059.22;4872575;29;20120;-73
2022/08/25 03:07:09;;;;;;;6.10;4.53;;;;;;;31.71;67.92;98058.84;4860507;29;20120;-72
2022/08/25 03:10:01;;;;;;;9.63;4.57;;;;;;;31.20;67.95;98062.69;4875585;29;20461;-74
2022/08/25 03:12:44;;;;;;;6.13;4.40;;;;;;;31.16;67.99;98072.09;4858776;29;20057;-72
2022/08/25 03:15:36;;;;;;;8.65;4.70;;;;;;;31.37;68.19;98072.47;4876017;29;20585;-73
2022/08/25 03:18:18;;;;;;;7.18;5.15;;;;;;;31.39;68.69;98072.94;4875111;29;20060;-72
2022/08/25 03:21:08;;;;;;;5.40;4.57;;;;;;;30.91;69.11;98075.16;4876270;29;20112;-70
2022/08/25 03:23:50;;;;;;;7.68;4.82;;;;;;;30.96;69.42;98079.63;4893755;29;20048;-72
2022/08/25 03:26:57;;;;;;;8.43;5.18;;;;;;;31.07;69.61;98077.88;4893257;29;20536;-74
2022/08/25 03:29:41;;;;;;;6.70;4.45;;;;;;;31.34;68.43;98076.00;4881688;29;20068;-73
2022/08/25 03:32:30;;;;;;;5.70;4.70;;;;;;;30.70;69.81;98091.31;4902768;29;20068;-73
2022/08/25 03:35:19;;;;;;;7.55;5.10;;;;;;;31.25;70.42;98082.94;4903750;29;20496;-73
2022/08/25 03:38:03;;;;;;;10.05;5.40;;;;;;;31.49;70.32;98092.91;4909659;29;20063;-73
2022/08/25 03:40:53;;;;;;;7.43;5.00;;;;;;;31.36;68.89;98097.81;4912203;29;20131;-73
2022/08/25 03:43:35;;;;;;;6.32;4.80;;;;;;;31.54;69.11;98098.16;4913827;28;20051;-72
2022/08/25 03:46:34;;;;;;;8.80;5.80;;;;;;;31.41;69.49;98105.81;4911204;29;20052;-73
2022/08/25 03:49:19;;;;;;;7.20;5.65;;;;;;;31.35;70.18;98107.28;4896671;29;20052;-73
2022/08/25 03:52:10;;;;;;;8.15;5.78;;;;;;;31.55;69.50;98110.88;4912097;29;20721;-72
2022/08/25 03:54:52;;;;;;;8.02;5.60;;;;;;;31.53;68.40;98114.00;4912744;29;20130;-73
2022/08/25 03:57:41;;;;;;;7.28;6.05;;;;;;;31.50;69.39;98114.75;4886995;29;20056;-73
2022/08/25 04:00:30;;;;;;;11.90;6.22;;;;;;;31.46;68.78;98113.06;4893195;29;20119;-73
2022/08/25 04:03:12;;;;;;;7.07;5.90;;;;;;;31.59;68.99;98118.09;4892908;29;20080;-73
2022/08/25 04:06:01;;;;;;;9.15;6.15;;;;;;;31.72;69.02;98117.88;4898991;29;20095;-73
2022/08/25 04:08:51;;;;;;;9.98;6.93;;;;;;;31.79;69.42;98124.38;4906400;29;20051;-73
2022/08/25 04:11:41;;;;;;;8.50;6.85;;;;;;;31.50;69.15;98123.06;4897541;29;20049;-73
2022/08/25 04:14:24;;;;;;;8.45;6.05;;;;;;;31.80;68.43;98117.66;4892560;29;20376;-72
2022/08/25 04:17:13;;;;;;;10.35;6.63;;;;;;;31.75;67.96;98126.28;4891424;29;20108;-73
2022/08/25 04:19:56;;;;;;;12.93;6.50;;;;;;;31.46;70.50;98124.16;4892974;29;20068;-73
2022/08/25 04:22:44;;;;;;;11.10;6.15;;;;;;;31.93;67.95;98125.78;4887379;29;20044;-73
2022/08/25 04:25:26;;;;;;;8.50;6.75;;;;;;;31.89;68.49;98125.75;4893852;29;20143;-73
2022/08/25 04:28:16;;;;;;;9.35;7.28;;;;;;;32.16;68.50;98128.59;4892810;29;20052;-73
2022/08/25 04:30:58;;;;;;;9.40;7.10;;;;;;;32.15;67.44;98126.97;4893167;29;20041;-73
2022/08/25 04:33:47;;;;;;;10.50;7.53;;;;;;;32.25;66.76;98136.66;4892507;29;20132;-73
2022/08/25 04:36:29;;;;;;;9.95;8.07;;;;;;;32.29;68.58;98134.72;4892726;29;20052;-72
2022/08/25 04:39:19;;;;;;;11.63;8.68;;;;;;;31.94;67.63;98141.28;4892438;29;20061;-74
2022/08/25 04:42:02;;;;;;;12.43;8.57;;;;;;;32.08;68.25;98133.22;4895559;28;20048;-72
2022/08/25 04:44:58;;;;;;;12.20;8.48;;;;;;;32.34;66.43;98134.41;4914052;28;20036;-72
2022/08/25 04:47:47;;;;;;;12.98;8.90;;;;;;;32.44;66.28;98130.19;4915746;29;20056;-73
2022/08/25 04:50:36;;;;;;;12.88;8.77;;;;;;;32.66;67.12;98143.25;4913655;29;20071;-70
2022/08/25 04:53:25;;;;;;;14.00;8.38;;;;;;;32.36;68.04;98132.06;4912699;29;20079;-69
2022/08/25 04:56:26;;;;;;;15.52;10.13;;;;;;;32.30;68.36;98144.66;4877567;29;20063;-70
2022/08/25 04:59:25;;;;;;;18.83;9.07;;;;;;;32.87;66.02;98145.53;4856814;29;20064;-70
2022/08/25 05:02:05;;;;;;;16.33;9.52;;;;;;;32.86;67.05;98146.69;4872635;29;20490;-69
2022/08/25 05:04:54;;;;;;;17.27;9.95;;;;;;;32.62;64.65;98147.13;4896774;29;20139;-69
2022/08/25 05:07:36;;;;;;;15.25;9.38;;;;;;;32.57;67.27;98137.16;4890766;29;20052;-70
2022/08/25 05:10:31;;;;;;;13.73;9.23;;;;;;;32.48;67.72;98156.03;4891397;29;20056;-71
2022/08/25 05:13:07;;;;;;;22.08;10.32;;;;;;;32.36;67.86;98154.28;4891544;29;20112;-70
2022/08/25 05:15:58;;;;;;;26.33;15.80;;;;;;;32.47;65.61;98146.13;4892000;29;20060;-71
2022/08/25 05:18:41;;;;;;;21.50;10.93;;;;;;;32.46;65.90;98150.84;4890348;29;20408;-70
2022/08/25 05:21:37;;;;;;;16.35;10.90;;;;;;;32.70;65.69;98149.66;4890847;29;20586;-70
2022/08/25 05:24:13;;;;;;;16.98;10.25;;;;;;;32.89;65.84;98139.59;4891040;29;20555;-70
2022/08/25 05:27:15;;;;;;;13.27;9.45;;;;;;;33.17;65.18;98141.94;4889872;29;20513;-70
2022/08/25 05:30:05;;;;;;;15.52;9.15;;;;;;;33.51;63.84;98139.16;4891290;29;20136;-70
2022/08/25 05:32:54;;;;;;;16.27;9.48;;;;;;;33.91;65.19;98134.81;4891420;29;20063;-71
2022/08/25 05:35:39;;;;;;;18.25;10.50;;;;;;;33.55;64.57;98135.25;4891267;29;20123;-70
2022/08/25 05:38:30;;;;;;;16.52;8.43;;;;;;;34.32;61.05;98138.34;4890270;29;20545;-71
2022/08/25 05:41:17;;;;;;;18.98;9.85;;;;;;;34.25;60.90;98143.88;4889924;29;20496;-70
2022/08/25 05:44:12;;;;;;;13.07;8.80;;;;;;;34.75;59.41;98137.84;4894105;28;20155;-71
2022/08/25 05:47:08;;;;;;;16.63;10.50;;;;;;;34.48;61.95;98140.84;4871985;29;20242;-72
2022/08/25 05:49:44;;;;;;;15.48;9.85;;;;;;;34.15;60.08;98133.41;4857044;29;20116;-71
2022/08/25 05:52:33;;;;;;;15.50;11.07;;;;;;;34.08;60.94;98139.72;4872369;29;20112;-72
2022/08/25 05:55:22;;;;;;;16.55;10.05;;;;;;;34.48;62.42;98140.06;4872332;29;20141;-71
2022/08/25 05:58:05;;;;;;;19.37;11.03;;;;;;;34.21;60.93;98133.91;4841586;29;20052;-71
2022/08/25 06:02:39;;;;;;;16.15;11.00;;;;;;;34.21;61.49;98139.47;4871449;29;20352;-71
2022/08/25 06:03:59;;;;;;;14.35;9.63;;;;;;;34.29;61.50;98135.53;4872452;29;20060;-71
2022/08/25 06:06:52;;;;;;;13.98;9.70;;;;;;;34.56;61.46;98135.31;4872474;29;20053;-71
2022/08/25 06:09:40;;;;;;;17.10;11.15;;;;;;;34.40;63.41;98136.41;4871221;29;20064;-70
2022/08/25 06:12:23;;;;;;;16.45;10.60;;;;;;;33.77;63.26;98127.13;4871319;29;20128;-71
2022/08/25 06:15:20;;;;;;;15.07;11.13;;;;;;;33.52;63.98;98133.22;4884037;29;20055;-70
2022/08/25 06:18:09;;;;;;;15.68;10.50;;;;;;;33.48;63.58;98123.25;4857997;29;20048;-71
2022/08/25 06:20:51;;;;;;;14.35;10.55;;;;;;;33.73;63.23;98129.09;4874663;29;20068;-71
2022/08/25 06:23:40;;;;;;;17.30;9.68;;;;;;;34.15;63.57;98119.50;4853403;29;20105;-71
2022/08/25 06:26:22;;;;;;;20.05;10.38;;;;;;;34.13;62.65;98119.88;4853180;29;20045;-70
2022/08/25 06:29:12;;;;;;;15.43;10.38;;;;;;;33.51;61.90;98109.34;4856298;29;20461;-70
2022/08/25 06:31:54;;;;;;;;;;;;;;;33.96;63.31;98114.97;4873636;29;20044;-71
2022/08/25 06:34:43;;;;;;;13.77;8.70;;;;;;;33.78;61.01;98109.22;4868571;29;19954;-71
2022/08/25 06:37:32;;;;;;;13.02;8.60;;;;;;;34.70;60.01;98107.53;4874367;29;20053;-73
2022/08/25 06:40:21;;;;;;;15.27;9.43;;;;;;;34.44;60.71;98105.78;4874904;29;20711;-73
2022/08/25 06:43:07;;;;;;;14.60;9.40;;;;;;;34.69;59.79;98105.97;4889210;29;20049;-73
2022/08/25 06:46:02;;;;;;;13.65;10.05;;;;;;;34.38;59.97;98102.56;4884891;29;20060;-72
2022/08/25 06:48:59;;;;;;;15.77;8.88;;;;;;;35.03;58.52;98100.16;4894089;29;20055;-72
2022/08/25 06:51:49;;;;;;;15.27;9.73;;;;;;;34.53;60.59;98103.47;4895619;29;20048;-73
2022/08/25 06:54:37;;;;;;;18.63;10.80;;;;;;;34.73;59.51;98101.19;4883758;29;20123;-73
2022/08/25 06:57:21;;;;;;;17.58;9.43;;;;;;;35.06;59.53;98102.13;4896075;29;20057;-73
2022/08/25 07:00:12;;;;;;;13.52;8.90;;;;;;;34.98;60.12;98097.72;4877089;29;20511;-72
2022/08/25 07:02:54;;;;;;;14.35;9.90;;;;;;;34.79;59.85;98096.06;4893802;29;20044;-73
2022/08/25 07:05:42;;;;;;;13.00;9.30;;;;;;;34.39;61.26;98087.44;4893163;29;20054;-72
2022/08/25 07:08:31;;;;;;;13.82;9.18;;;;;;;34.73;61.22;98081.69;4893298;29;20048;-72
2022/08/25 07:11:21;;;;;;;11.93;9.32;;;;;;;34.76;58.55;98083.72;4892762;29;20847;-73
2022/08/25 07:14:06;;;;;;;17.17;10.25;;;;;;;34.57;59.48;98067.25;4894219;29;20048;-72
2022/08/25 07:16:55;;;;;;;18.17;9.95;;;;;;;34.05;60.31;98073.69;4875944;29;20143;-73
2022/08/25 07:19:39;;;;;;;19.48;9.90;;;;;;;33.93;62.24;98065.63;4892646;29;20441;-73
2022/08/25 07:22:39;;;;;;;18.58;11.73;;;;;;;34.26;60.98;98061.09;4878950;29;20119;-73
2022/08/25 07:25:22;;;;;;;12.45;9.32;;;;;;;34.31;60.44;98060.75;4876343;29;20056;-72
2022/08/25 07:28:11;;;;;;;16.92;8.98;;;;;;;34.64;59.48;98058.91;4889253;29;20627;-72
2022/08/25 07:30:53;;;;;;;17.60;9.70;;;;;;;33.84;60.95;98052.03;4889211;29;20473;-73
2022/08/25 07:36:45;;;;;;;13.88;9.52;;;;;;;34.17;59.85;98052.31;4887199;29;20444;-73
2022/08/25 07:39:34;;;;;;;14.75;9.10;;;;;;;34.16;60.44;98034.00;4875490;29;20097;-73
2022/08/25 07:42:17;;;;;;;12.70;8.90;;;;;;;34.44;58.46;98033.38;4874011;29;20116;-72
2022/08/25 07:45:06;;;;;;;18.85;9.65;;;;;;;34.12;59.90;98025.59;4891682;29;20080;-73
2022/08/25 07:47:50;;;;;;;14.32;9.25;;;;;;;34.34;59.19;98034.91;4890257;29;20746;-73
2022/08/25 07:50:41;;;;;;;13.13;8.98;;;;;;;34.84;58.36;98017.63;4890895;29;20128;-73
2022/08/25 07:53:31;;;;;;;13.52;9.45;;;;;;;34.88;57.61;98005.28;4891802;29;20068;-73
2022/08/25 07:56:22;;;;;;;16.98;8.93;;;;;;;35.31;57.39;97992.66;4891320;29;20048;-73
2022/08/25 07:59:04;;;;;;;16.23;8.80;;;;;;;35.08;57.46;97993.78;4891736;29;20053;-73
2022/08/25 08:01:55;;;;;;;13.68;9.70;;;;;;;34.83;58.10;97997.31;4891582;29;20408;-72
2022/08/25 08:04:37;;;;;;;15.65;10.45;;;;;;;34.31;60.69;97996.69;4891167;29;20053;-73
2022/08/25 08:07:30;;;;;;;15.20;9.65;;;;;;;34.90;59.54;97988.19;4890337;29;20119;-72
2022/08/25 08:10:24;;;;;;;17.52;8.85;;;;;;;34.10;59.21;97998.13;4890997;29;20060;-71
2022/08/25 08:13:33;;;;;;;13.18;10.05;;;;;;;34.71;58.97;97992.88;4910709;29;20040;-72
2022/08/25 08:16:25;;;;;;;18.88;9.70;;;;;;;34.52;59.06;97982.03;4897890;29;20119;-72
2022/08/25 08:19:14;;;;;;;13.32;8.85;;;;;;;34.40;57.67;97983.19;4887610;29;20049;-73
2022/08/25 08:22:05;;;;;;;13.52;9.27;;;;;;;34.38;59.75;97990.34;4898114;29;20111;-73
2022/08/25 08:24:54;;;;;;;14.23;9.25;;;;;;;33.99;60.64;97988.91;4876654;29;20066;-72
2022/08/25 08:27:38;;;;;;;14.55;9.23;;;;;;;34.44;61.56;97992.38;4890937;29;20044;-72
2022/08/25 08:30:26;;;;;;;21.10;8.90;;;;;;;34.12;59.46;97989.38;4890681;29;20041;-73
2022/08/25 08:33:22;;;;;;;16.40;7.78;;;;;;;34.41;60.11;97982.00;4891001;29;20048;-72
2022/08/25 08:36:00;;;;;;;11.73;7.40;;;;;;;34.24;59.32;97974.34;4890061;29;20504;-72
2022/08/25 08:38:49;;;;;;;15.50;7.25;;;;;;;34.41;59.03;97978.41;4890211;29;20396;-72
2022/08/25 08:44:51;;;;;;;14.32;7.75;;;;;;;34.76;58.04;97954.69;4870255;29;20661;-73
2022/08/25 08:48:18;;;;;;;11.30;7.30;;;;;;;35.07;57.84;97947.56;4871297;29;20104;-72
2022/08/25 08:51:19;;;;;;;15.27;8.13;;;;;;;34.76;57.87;97940.75;4870547;29;20045;-71
2022/08/25 08:54:26;;;;;;;18.35;7.90;;;;;;;34.72;56.88;97932.41;4870461;29;20041;-71
2022/08/25 08:57:23;;;;;;;19.63;8.85;;;;;;;34.09;58.77;97926.13;4862329;29;20083;-71
2022/08/25 09:00:07;;;;;;;17.00;7.15;;;;;;;34.62;57.19;97916.41;4892688;29;20044;-73
2022/08/25 09:03:36;;;;;;;22.52;8.07;;;;;;;34.57;58.21;97908.41;4892393;29;20072;-71
2022/08/25 09:06:46;;;;;;;16.15;8.07;;;;;;;33.99;59.34;97908.16;4890595;29;20111;-72
2022/08/25 09:09:36;;;;;;;17.23;8.45;;;;;;;34.31;59.23;97901.97;4861806;29;20045;-72
2022/08/25 09:12:21;;;;;;;13.98;8.25;;;;;;;34.23;59.81;97901.16;4875038;29;20056;-71
2022/08/25 09:19:31;;;;;;;16.40;7.72;;;;;;;34.26;59.12;97905.94;4824325;29;20505;-71
2022/08/25 09:22:22;;;;;;;15.32;8.07;;;;;;;34.41;59.47;97895.63;4890271;29;20051;-72
2022/08/25 09:25:37;;;;;;;12.27;7.15;;;;;;;34.46;57.43;97892.47;4890501;29;20135;-72
2022/08/25 09:28:40;;;;;;;16.67;7.05;;;;;;;34.52;56.74;97887.31;4874282;29;20123;-72
2022/08/25 09:31:32;;;;;;;9.82;7.32;;;;;;;34.85;56.53;97880.66;4890742;29;20613;-72
2022/08/25 09:34:27;;;;;;;19.13;7.68;;;;;;;34.66;56.99;97883.75;4889680;29;20412;-71
2022/08/25 09:37:09;;;;;;;11.93;6.82;;;;;;;34.40;55.26;97882.91;4889979;29;20044;-71
2022/08/25 09:40:06;;;;;;;22.70;6.78;;;;;;;34.89;57.02;97875.88;4874097;29;20140;-71
2022/08/25 09:42:53;;;;;;;10.63;6.10;;;;;;;34.59;56.39;97873.41;4875406;29;20494;-72
2022/08/25 09:45:53;;;;;;;12.30;7.68;;;;;;;34.65;56.20;97871.81;4889859;29;20059;-72
2022/08/25 09:48:49;;;;;;;14.98;7.03;;;;;;;34.68;54.72;97865.50;4890879;29;20056;-72
2022/08/25 09:51:39;;;;;;;11.45;5.90;;;;;;;34.50;55.19;97853.47;4875934;29;20061;-72
2022/08/25 09:54:33;;;;;;;15.75;6.80;;;;;;;34.71;56.61;97859.13;4889283;29;20056;-71
2022/08/25 09:57:36;;;;;;;13.07;7.00;;;;;;;34.56;55.22;97845.53;4875593;29;20521;-72
2022/08/25 10:00:38;;;;;;;18.60;7.07;;;;;;;34.68;55.97;97848.78;4890136;29;20120;-72
2022/08/25 10:03:27;;;;;;;11.05;8.02;;;;;;;34.55;58.07;97846.72;4889910;29;20056;-72
2022/08/25 10:06:21;;;;;;;13.85;8.02;;;;;;;34.36;57.89;97848.69;4889331;29;20060;-74
2022/08/25 10:09:23;;;;;;;11.43;8.27;;;;;;;34.29;56.84;97841.09;4889732;29;20063;-71
2022/08/25 10:12:10;;;;;;;13.77;7.75;;;;;;;34.85;56.72;97844.41;4890278;29;20064;-72
2022/08/25 10:15:20;;;;;;;18.60;7.97;;;;;;;34.54;56.41;97842.34;4885879;29;20052;-72
2022/08/25 10:18:32;;;;;;;14.95;8.30;;;;;;;34.50;56.90;97839.56;4908247;29;20076;-72
2022/08/25 10:21:30;;;;;;;13.23;7.75;;;;;;;34.56;56.31;97835.19;4905173;29;20742;-72
2022/08/25 10:24:11;;;;;;;8.68;7.28;;;;;;;34.28;56.80;97833.13;4874703;29;20651;-71
2022/08/25 10:27:23;;;;;;;12.68;7.40;;;;;;;34.69;56.99;97816.91;4891685;29;20421;-72
2022/08/25 10:30:24;;;;;;;12.50;7.53;;;;;;;34.56;56.78;97818.47;4899067;29;20044;-70
2022/08/25 10:33:12;;;;;;;14.23;7.25;;;;;;;34.28;57.31;97813.63;4889696;29;20073;-71
2022/08/25 10:36:16;;;;;;;11.93;7.20;;;;;;;34.64;55.98;97802.53;4890132;29;20499;-71
2022/08/25 10:39:18;;;;;;;11.55;6.78;;;;;;;34.77;55.72;97806.56;4892396;29;20067;-71
2022/08/25 10:42:21;;;;;;;12.13;7.18;;;;;;;34.44;56.58;97805.72;4888786;29;20050;-69
2022/08/25 10:48:17;;;;;;;11.30;7.43;;;;;;;34.19;56.93;97802.09;4871905;29;20056;-72
2022/08/25 10:51:06;;;;;;;8.98;7.22;;;;;;;34.75;55.26;97800.59;4872632;29;20088;-71
2022/08/25 10:54:21;;;;;;;15.43;7.22;;;;;;;34.51;56.01;97794.59;4888663;29;20108;-72
2022/08/25 10:57:20;;;;;;;10.73;7.50;;;;;;;34.68;57.46;97793.03;4871292;29;20055;-71
2022/08/25 11:00:17;;;;;;;12.80;7.57;;;;;;;34.62;55.47;97793.78;4889435;29;20052;-71
2022/08/25 11:03:16;;;;;;;13.10;7.50;;;;;;;34.76;55.87;97788.25;4889275;29;20128;-71
2022/08/25 11:06:18;;;;;;;12.32;7.47;;;;;;;34.50;56.62;97790.19;4889688;29;20143;-71
2022/08/25 11:09:13;;;;;;;11.05;7.95;;;;;;;34.46;56.20;97791.41;4891487;29;20057;-72
2022/08/25 11:12:09;;;;;;;12.38;7.68;;;;;;;34.51;57.59;97786.22;4893482;29;20047;-71
2022/08/25 11:15:02;;;;;;;;;;;;;;;34.44;57.48;97786.22;4860160;29;20057;-72
2022/08/25 11:17:57;;;;;;;15.25;8.15;;;;;;;34.49;57.88;97774.69;4889347;29;20030;-73
2022/08/25 11:21:09;;;;;;;14.65;7.82;;;;;;;34.45;56.82;97779.47;4889028;29;20068;-71
2022/08/25 11:24:04;;;;;;;15.95;7.93;;;;;;;34.86;55.46;97792.25;4893842;29;20103;-71
2022/08/25 11:27:01;;;;;;;17.35;7.95;;;;;;;34.07;55.85;97787.31;4896844;29;20067;-71
2022/08/25 11:29:55;;;;;;;12.32;8.50;;;;;;;34.48;56.19;97781.44;4904108;29;20059;-71
2022/08/25 11:32:50;;;;;;;16.20;8.35;;;;;;;34.64;55.15;97786.63;4887269;29;20064;-70
2022/08/25 11:35:42;;;;;;;14.00;8.52;;;;;;;34.03;56.96;97785.69;4898098;29;20570;-71
2022/08/25 11:38:37;;;;;;;14.70;8.30;;;;;;;34.23;56.58;97789.75;4888202;29;20047;-71
2022/08/25 11:42:00;;;;;;;15.18;8.45;;;;;;;34.19;57.17;97807.66;4900861;29;20056;-70
2022/08/25 11:45:16;;;;;;;11.60;8.68;;;;;;;34.50;56.90;97801.34;4874304;29;20084;-70
2022/08/25 11:48:12;;;;;;;13.35;9.50;;;;;;;34.07;56.29;97798.44;4861475;29;20053;-71
2022/08/25 11:51:08;;;;;;;10.77;8.93;;;;;;;34.30;57.26;97800.91;4885544;29;20486;-71
2022/08/25 11:54:19;;;;;;;19.48;8.43;;;;;;;34.21;58.20;97803.28;4902548;29;20048;-70
2022/08/25 11:57:26;;;;;;;13.70;9.38;;;;;;;34.37;56.54;97802.91;4900464;29;20037;-69
2022/08/25 12:00:13;;;;;;;14.95;9.40;;;;;;;34.26;56.34;97810.44;4901976;29;20523;-71
2022/08/25 12:03:41;;;;;;;16.35;10.23;;;;;;;34.18;56.98;97814.41;4901111;29;20120;-73
2022/08/25 12:06:24;;;;;;;13.10;9.77;;;;;;;33.81;57.59;97818.22;4879871;29;20064;-73
2022/08/25 12:09:25;;;;;;;13.63;9.15;;;;;;;34.47;59.13;97816.06;4887614;29;20127;-72
2022/08/25 12:12:30;;;;;;;16.60;9.48;;;;;;;34.34;57.39;97809.28;4886468;29;20056;-71
2022/08/25 12:15:38;;;;;;;17.80;9.32;;;;;;;34.28;58.10;97813.63;4900861;29;20052;-72
2022/08/25 12:18:34;;;;;;;13.68;9.40;;;;;;;34.33;58.81;97821.59;4901600;29;20123;-72
2022/08/25 12:21:31;;;;;;;19.40;9.98;;;;;;;34.15;58.10;97815.97;4885212;29;20510;-72
2022/08/25 12:24:18;;;;;;;15.70;10.07;;;;;;;34.01;59.40;97821.47;4882719;29;20139;-71
2022/08/25 12:27:25;;;;;;;19.10;10.20;;;;;;;33.84;59.38;97823.81;4901200;29;20074;-73
2022/08/25 12:30:57;;;;;;;17.63;10.98;;;;;;;33.89;59.91;97825.41;4894739;29;20060;-71
2022/08/25 12:34:07;;;;;;;13.75;10.40;;;;;;;33.99;61.10;97819.09;4892540;29;20468;-75
2022/08/25 12:37:05;;;;;;;16.50;11.10;;;;;;;33.81;60.16;97829.38;4872723;29;20068;-72
2022/08/25 12:40:11;;;;;;;13.25;10.43;;;;;;;33.65;59.28;97838.84;4873490;29;20059;-72
2022/08/25 12:43:19;;;;;;;11.05;9.77;;;;;;;33.78;60.53;97835.69;4873276;29;20059;-72
2022/08/25 12:46:30;;;;;;;16.48;11.07;;;;;;;33.65;62.37;97838.84;4900829;29;20065;-72
2022/08/25 12:49:38;;;;;;;16.73;11.10;;;;;;;33.49;59.95;97830.75;4899205;29;20373;-73
2022/08/25 12:52:26;;;;;;;17.80;11.68;;;;;;;33.59;61.66;97832.00;4897435;29;20496;-72
2022/08/25 12:55:22;;;;;;;20.45;12.73;;;;;;;33.55;61.09;97837.56;4897596;29;20051;-72
2022/08/25 12:58:18;;;;;;;14.63;11.35;;;;;;;33.40;61.40;97837.84;4896828;29;20040;-71
2022/08/25 13:01:57;;;;;;;17.35;11.60;;;;;;;33.43;62.58;97843.44;4893162;29;20053;-72
2022/08/25 13:05:02;;;;;;;15.38;10.48;;;;;;;33.41;62.02;97845.81;4891193;29;20048;-72
2022/08/25 13:08:10;;;;;;;21.77;12.23;;;;;;;33.44;63.62;97853.38;4891352;29;20056;-70
2022/08/25 13:11:04;;;;;;;20.30;11.65;;;;;;;33.21;64.75;97859.19;4871198;29;20123;-71
2022/08/25 13:14:02;;;;;;;;;;;;;;;33.19;62.02;97863.53;4892431;29;20060;-71
2022/08/25 13:16:39;;;;;;;22.30;11.98;;;;;;;33.21;62.93;97858.38;4845930;29;20368;-71
2022/08/25 13:19:28;;;;;;;19.98;13.02;;;;;;;33.22;64.15;97860.78;4894094;29;20148;-71
2022/08/25 13:22:19;;;;;;;19.00;12.50;;;;;;;33.25;62.91;97859.19;4880829;29;20116;-72
2022/08/25 13:25:04;;;;;;;17.98;12.05;;;;;;;32.81;62.99;97868.34;4893420;29;20056;-72
2022/08/25 13:28:00;;;;;;;20.05;13.05;;;;;;;32.85;62.79;97869.97;4877104;29;20143;-72
2022/08/25 13:30:42;;;;;;;19.65;11.82;;;;;;;33.05;62.77;97870.53;4897690;29;20048;-72
2022/08/25 13:33:32;;;;;;;17.30;11.93;;;;;;;33.03;63.20;97872.13;4890341;29;20769;-72